sensor_id;sensor_type;location;lat;lon;timestamp;P1;durP1;ratioP1;P2;durP2;ratioP2
14294;SDS011;7231;59.370;18.016;2023-08-21T00:00:52;69.65;;;28.52;;
14294;SDS011;7231;59.370;18.016;2023-08-21T00:03:20;62.47;;;27.42;;
14294;SDS011;7231;59.370;18.016;2023-08-21T00:05:48;54.70;;;27.48;;
14294;SDS011;7231;59.370;18.016;2023-08-21T00:08:16;61.38;;;26.42;;
14294;SDS011;7231;59.370;18.016;2023-08-21T00:10:45;59.45;;;26.92;;
14294;SDS011;7231;59.370;18.016;2023-08-21T00:13:14;50.53;;;25.05;;
14294;SDS011;7231;59.370;18.016;2023-08-21T00:15:41;48.58;;;23.67;;
14294;SDS011;7231;59.370;18.016;2023-08-21T00:18:10;39.17;;;22.23;;
14294;SDS011;7231;59.370;18.016;2023-08-21T00:20:37;44.78;;;21.92;;
14294;SDS011;7231;59.370;18.016;2023-08-21T00:23:08;41.58;;;22.65;;
14294;SDS011;7231;59.370;18.016;2023-08-21T00:25:36;48.40;;;22.20;;
14294;SDS011;7231;59.370;18.016;2023-08-21T00:28:05;35.83;;;20.27;;
14294;SDS011;7231;59.370;18.016;2023-08-21T00:30:33;43.63;;;22.15;;
14294;SDS011;7231;59.370;18.016;2023-08-21T00:33:02;38.72;;;21.02;;
14294;SDS011;7231;59.370;18.016;2023-08-21T00:35:30;41.67;;;21.15;;
14294;SDS011;7231;59.370;18.016;2023-08-21T00:37:58;41.05;;;21.27;;
14294;SDS011;7231;59.370;18.016;2023-08-21T00:40:26;40.33;;;22.00;;
14294;SDS011;7231;59.370;18.016;2023-08-21T00:42:54;40.75;;;20.98;;
14294;SDS011;7231;59.370;18.016;2023-08-21T00:45:23;41.83;;;20.95;;
14294;SDS011;7231;59.370;18.016;2023-08-21T00:47:52;47.80;;;23.13;;
14294;SDS011;7231;59.370;18.016;2023-08-21T00:50:21;45.88;;;23.85;;
14294;SDS011;7231;59.370;18.016;2023-08-21T00:52:49;50.40;;;24.70;;
14294;SDS011;7231;59.370;18.016;2023-08-21T00:55:17;46.13;;;23.02;;
14294;SDS011;7231;59.370;18.016;2023-08-21T00:57:46;44.25;;;23.00;;
14294;SDS011;7231;59.370;18.016;2023-08-21T01:00:14;42.78;;;22.00;;
14294;SDS011;7231;59.370;18.016;2023-08-21T01:02:43;43.30;;;21.88;;
14294;SDS011;7231;59.370;18.016;2023-08-21T01:05:11;46.08;;;23.13;;
14294;SDS011;7231;59.370;18.016;2023-08-21T01:07:49;48.95;;;24.30;;
14294;SDS011;7231;59.370;18.016;2023-08-21T01:10:22;44.05;;;21.85;;
14294;SDS011;7231;59.370;18.016;2023-08-21T01:12:56;43.13;;;21.60;;
14294;SDS011;7231;59.370;18.016;2023-08-21T01:15:33;38.63;;;20.58;;
14294;SDS011;7231;59.370;18.016;2023-08-21T01:18:03;36.55;;;20.95;;
14294;SDS011;7231;59.370;18.016;2023-08-21T01:20:32;37.80;;;20.88;;
14294;SDS011;7231;59.370;18.016;2023-08-21T01:23:03;39.05;;;19.42;;
14294;SDS011;7231;59.370;18.016;2023-08-21T01:25:34;34.38;;;17.90;;
14294;SDS011;7231;59.370;18.016;2023-08-21T01:28:02;38.60;;;19.67;;
14294;SDS011;7231;59.370;18.016;2023-08-21T01:30:30;38.60;;;18.80;;
14294;SDS011;7231;59.370;18.016;2023-08-21T01:33:02;38.60;;;19.23;;
14294;SDS011;7231;59.370;18.016;2023-08-21T01:35:34;39.05;;;19.90;;
14294;SDS011;7231;59.370;18.016;2023-08-21T01:38:03;41.58;;;20.20;;
14294;SDS011;7231;59.370;18.016;2023-08-21T01:40:32;40.92;;;20.90;;
14294;SDS011;7231;59.370;18.016;2023-08-21T01:43:01;38.17;;;19.85;;
14294;SDS011;7231;59.370;18.016;2023-08-21T01:45:29;43.58;;;22.33;;
14294;SDS011;7231;59.370;18.016;2023-08-21T01:47:57;43.58;;;21.35;;
14294;SDS011;7231;59.370;18.016;2023-08-21T01:50:25;36.63;;;21.10;;
14294;SDS011;7231;59.370;18.016;2023-08-21T01:52:53;43.08;;;21.35;;
14294;SDS011;7231;59.370;18.016;2023-08-21T01:55:21;36.25;;;20.30;;
14294;SDS011;7231;59.370;18.016;2023-08-21T01:57:50;34.03;;;19.35;;
14294;SDS011;7231;59.370;18.016;2023-08-21T02:00:18;39.58;;;20.17;;
14294;SDS011;7231;59.370;18.016;2023-08-21T02:02:46;38.72;;;19.63;;
14294;SDS011;7231;59.370;18.016;2023-08-21T02:05:14;37.92;;;19.83;;
14294;SDS011;7231;59.370;18.016;2023-08-21T02:07:42;36.25;;;19.50;;
14294;SDS011;7231;59.370;18.016;2023-08-21T02:10:10;33.65;;;19.35;;
14294;SDS011;7231;59.370;18.016;2023-08-21T02:12:38;32.60;;;19.20;;
14294;SDS011;7231;59.370;18.016;2023-08-21T02:15:09;32.13;;;19.67;;
14294;SDS011;7231;59.370;18.016;2023-08-21T02:17:37;35.10;;;19.05;;
14294;SDS011;7231;59.370;18.016;2023-08-21T02:20:06;31.80;;;18.92;;
14294;SDS011;7231;59.370;18.016;2023-08-21T02:22:34;34.83;;;19.33;;
14294;SDS011;7231;59.370;18.016;2023-08-21T02:25:02;31.83;;;18.73;;
14294;SDS011;7231;59.370;18.016;2023-08-21T02:27:31;34.10;;;19.52;;
14294;SDS011;7231;59.370;18.016;2023-08-21T02:29:59;29.52;;;18.75;;
14294;SDS011;7231;59.370;18.016;2023-08-21T02:32:28;34.20;;;18.63;;
14294;SDS011;7231;59.370;18.016;2023-08-21T02:34:56;30.00;;;18.42;;
14294;SDS011;7231;59.370;18.016;2023-08-21T02:37:24;27.75;;;17.48;;
14294;SDS011;7231;59.370;18.016;2023-08-21T02:39:52;29.30;;;17.35;;
14294;SDS011;7231;59.370;18.016;2023-08-21T02:42:20;30.00;;;17.75;;
14294;SDS011;7231;59.370;18.016;2023-08-21T02:44:48;25.65;;;16.10;;
14294;SDS011;7231;59.370;18.016;2023-08-21T02:47:16;28.15;;;16.27;;
14294;SDS011;7231;59.370;18.016;2023-08-21T02:49:46;21.13;;;16.08;;
14294;SDS011;7231;59.370;18.016;2023-08-21T02:52:13;27.45;;;16.83;;
14294;SDS011;7231;59.370;18.016;2023-08-21T02:54:41;23.25;;;15.73;;
14294;SDS011;7231;59.370;18.016;2023-08-21T02:57:09;23.55;;;15.55;;
14294;SDS011;7231;59.370;18.016;2023-08-21T02:59:37;24.77;;;14.93;;
14294;SDS011;7231;59.370;18.016;2023-08-21T03:02:05;25.63;;;15.27;;
14294;SDS011;7231;59.370;18.016;2023-08-21T03:04:34;25.23;;;14.63;;
14294;SDS011;7231;59.370;18.016;2023-08-21T03:07:03;20.25;;;15.10;;
14294;SDS011;7231;59.370;18.016;2023-08-21T03:09:31;24.17;;;14.20;;
14294;SDS011;7231;59.370;18.016;2023-08-21T03:11:59;21.02;;;13.95;;
14294;SDS011;7231;59.370;18.016;2023-08-21T03:14:27;19.50;;;13.40;;
14294;SDS011;7231;59.370;18.016;2023-08-21T03:16:55;18.60;;;12.95;;
14294;SDS011;7231;59.370;18.016;2023-08-21T03:19:23;17.67;;;12.38;;
14294;SDS011;7231;59.370;18.016;2023-08-21T03:21:51;19.13;;;13.07;;
14294;SDS011;7231;59.370;18.016;2023-08-21T03:24:20;18.50;;;12.07;;
14294;SDS011;7231;59.370;18.016;2023-08-21T03:26:48;17.73;;;12.77;;
14294;SDS011;7231;59.370;18.016;2023-08-21T03:29:16;20.70;;;13.38;;
14294;SDS011;7231;59.370;18.016;2023-08-21T03:31:46;17.83;;;12.95;;
14294;SDS011;7231;59.370;18.016;2023-08-21T03:34:14;17.98;;;12.18;;
14294;SDS011;7231;59.370;18.016;2023-08-21T03:36:42;15.27;;;12.05;;
14294;SDS011;7231;59.370;18.016;2023-08-21T03:39:20;14.63;;;11.43;;
14294;SDS011;7231;59.370;18.016;2023-08-21T03:41:48;15.93;;;11.30;;
14294;SDS011;7231;59.370;18.016;2023-08-21T03:44:16;16.23;;;11.30;;
14294;SDS011;7231;59.370;18.016;2023-08-21T03:46:44;15.38;;;10.57;;
14294;SDS011;7231;59.370;18.016;2023-08-21T03:49:12;16.08;;;11.02;;
14294;SDS011;7231;59.370;18.016;2023-08-21T03:51:40;13.68;;;10.23;;
14294;SDS011;7231;59.370;18.016;2023-08-21T03:54:08;11.70;;;9.73;;
14294;SDS011;7231;59.370;18.016;2023-08-21T03:56:38;9.00;;;7.32;;
14294;SDS011;7231;59.370;18.016;2023-08-21T03:59:06;7.95;;;6.43;;
14294;SDS011;7231;59.370;18.016;2023-08-21T04:01:34;8.88;;;6.65;;
14294;SDS011;7231;59.370;18.016;2023-08-21T04:04:02;11.38;;;6.80;;
14294;SDS011;7231;59.370;18.016;2023-08-21T04:06:30;7.97;;;6.47;;
14294;SDS011;7231;59.370;18.016;2023-08-21T04:08:58;8.05;;;6.03;;
14294;SDS011;7231;59.370;18.016;2023-08-21T04:11:26;12.65;;;7.03;;
14294;SDS011;7231;59.370;18.016;2023-08-21T04:13:57;7.75;;;7.00;;
14294;SDS011;7231;59.370;18.016;2023-08-21T04:16:25;8.50;;;7.35;;
14294;SDS011;7231;59.370;18.016;2023-08-21T04:18:53;10.57;;;8.23;;
14294;SDS011;7231;59.370;18.016;2023-08-21T04:21:21;10.57;;;7.70;;
14294;SDS011;7231;59.370;18.016;2023-08-21T04:23:50;8.57;;;7.47;;
14294;SDS011;7231;59.370;18.016;2023-08-21T04:26:19;11.32;;;8.15;;
14294;SDS011;7231;59.370;18.016;2023-08-21T04:28:47;11.82;;;8.35;;
14294;SDS011;7231;59.370;18.016;2023-08-21T04:31:17;9.32;;;8.20;;
14294;SDS011;7231;59.370;18.016;2023-08-21T04:33:45;9.70;;;7.72;;
14294;SDS011;7231;59.370;18.016;2023-08-21T04:36:15;8.82;;;7.60;;
14294;SDS011;7231;59.370;18.016;2023-08-21T04:38:44;8.02;;;6.65;;
14294;SDS011;7231;59.370;18.016;2023-08-21T04:41:12;7.70;;;6.85;;
14294;SDS011;7231;59.370;18.016;2023-08-21T04:43:40;8.15;;;6.90;;
14294;SDS011;7231;59.370;18.016;2023-08-21T04:46:08;7.80;;;6.95;;
14294;SDS011;7231;59.370;18.016;2023-08-21T04:48:37;9.52;;;6.75;;
14294;SDS011;7231;59.370;18.016;2023-08-21T04:51:05;6.78;;;6.07;;
14294;SDS011;7231;59.370;18.016;2023-08-21T04:53:33;8.00;;;5.78;;
14294;SDS011;7231;59.370;18.016;2023-08-21T04:56:01;7.55;;;6.40;;
14294;SDS011;7231;59.370;18.016;2023-08-21T04:58:29;7.75;;;6.65;;
14294;SDS011;7231;59.370;18.016;2023-08-21T05:00:57;10.05;;;6.88;;
14294;SDS011;7231;59.370;18.016;2023-08-21T05:03:26;9.77;;;6.30;;
14294;SDS011;7231;59.370;18.016;2023-08-21T05:05:55;8.60;;;6.70;;
14294;SDS011;7231;59.370;18.016;2023-08-21T05:08:24;10.35;;;7.57;;
14294;SDS011;7231;59.370;18.016;2023-08-21T05:10:54;8.95;;;7.65;;
14294;SDS011;7231;59.370;18.016;2023-08-21T05:13:23;9.35;;;7.68;;
14294;SDS011;7231;59.370;18.016;2023-08-21T05:15:52;12.85;;;8.13;;
14294;SDS011;7231;59.370;18.016;2023-08-21T05:18:21;10.85;;;6.97;;
14294;SDS011;7231;59.370;18.016;2023-08-21T05:20:50;9.82;;;7.57;;
14294;SDS011;7231;59.370;18.016;2023-08-21T05:23:22;9.75;;;7.65;;
14294;SDS011;7231;59.370;18.016;2023-08-21T05:25:50;10.45;;;8.25;;
14294;SDS011;7231;59.370;18.016;2023-08-21T05:28:18;10.48;;;8.20;;
14294;SDS011;7231;59.370;18.016;2023-08-21T05:30:46;14.10;;;8.57;;
14294;SDS011;7231;59.370;18.016;2023-08-21T05:33:15;12.45;;;8.02;;
14294;SDS011;7231;59.370;18.016;2023-08-21T05:35:43;10.00;;;7.05;;
14294;SDS011;7231;59.370;18.016;2023-08-21T05:38:11;10.00;;;7.32;;
14294;SDS011;7231;59.370;18.016;2023-08-21T05:40:41;10.80;;;7.50;;
14294;SDS011;7231;59.370;18.016;2023-08-21T05:43:09;10.25;;;6.75;;
14294;SDS011;7231;59.370;18.016;2023-08-21T05:45:37;10.13;;;6.43;;
14294;SDS011;7231;59.370;18.016;2023-08-21T05:48:05;7.18;;;5.97;;
14294;SDS011;7231;59.370;18.016;2023-08-21T05:50:34;8.40;;;6.03;;
14294;SDS011;7231;59.370;18.016;2023-08-21T05:53:03;7.80;;;6.05;;
14294;SDS011;7231;59.370;18.016;2023-08-21T05:55:31;10.68;;;6.45;;
14294;SDS011;7231;59.370;18.016;2023-08-21T05:58:00;11.32;;;6.18;;
14294;SDS011;7231;59.370;18.016;2023-08-21T06:00:28;9.18;;;6.13;;
14294;SDS011;7231;59.370;18.016;2023-08-21T06:02:56;9.07;;;6.00;;
14294;SDS011;7231;59.370;18.016;2023-08-21T06:05:24;8.95;;;5.25;;
14294;SDS011;7231;59.370;18.016;2023-08-21T06:07:52;8.95;;;5.93;;
14294;SDS011;7231;59.370;18.016;2023-08-21T06:10:20;12.00;;;5.85;;
14294;SDS011;7231;59.370;18.016;2023-08-21T06:12:48;6.13;;;4.25;;
14294;SDS011;7231;59.370;18.016;2023-08-21T06:15:19;6.05;;;3.55;;
14294;SDS011;7231;59.370;18.016;2023-08-21T06:17:47;8.98;;;4.70;;
14294;SDS011;7231;59.370;18.016;2023-08-21T06:20:15;5.47;;;4.07;;
14294;SDS011;7231;59.370;18.016;2023-08-21T06:22:43;5.80;;;4.10;;
14294;SDS011;7231;59.370;18.016;2023-08-21T06:25:11;5.93;;;3.90;;
14294;SDS011;7231;59.370;18.016;2023-08-21T06:27:39;5.18;;;3.83;;
14294;SDS011;7231;59.370;18.016;2023-08-21T06:30:25;9.35;;;4.35;;
14294;SDS011;7231;59.370;18.016;2023-08-21T06:32:54;7.55;;;4.07;;
14294;SDS011;7231;59.370;18.016;2023-08-21T06:35:22;8.18;;;3.90;;
14294;SDS011;7231;59.370;18.016;2023-08-21T06:37:50;6.80;;;3.90;;
14294;SDS011;7231;59.370;18.016;2023-08-21T06:40:18;8.40;;;3.78;;
14294;SDS011;7231;59.370;18.016;2023-08-21T06:42:46;7.05;;;3.83;;
14294;SDS011;7231;59.370;18.016;2023-08-21T06:45:15;7.38;;;4.00;;
14294;SDS011;7231;59.370;18.016;2023-08-21T06:47:45;5.47;;;3.85;;
14294;SDS011;7231;59.370;18.016;2023-08-21T06:50:13;7.53;;;4.15;;
14294;SDS011;7231;59.370;18.016;2023-08-21T06:52:42;6.35;;;4.15;;
14294;SDS011;7231;59.370;18.016;2023-08-21T06:55:10;5.38;;;4.00;;
14294;SDS011;7231;59.370;18.016;2023-08-21T06:57:38;7.60;;;4.00;;
14294;SDS011;7231;59.370;18.016;2023-08-21T07:00:06;6.13;;;4.03;;
14294;SDS011;7231;59.370;18.016;2023-08-21T07:02:35;10.05;;;4.20;;
14294;SDS011;7231;59.370;18.016;2023-08-21T07:05:06;11.00;;;4.45;;
14294;SDS011;7231;59.370;18.016;2023-08-21T07:07:37;5.57;;;3.92;;
14294;SDS011;7231;59.370;18.016;2023-08-21T07:10:06;7.97;;;3.97;;
14294;SDS011;7231;59.370;18.016;2023-08-21T07:12:34;4.30;;;3.88;;
14294;SDS011;7231;59.370;18.016;2023-08-21T07:15:03;11.07;;;3.90;;
14294;SDS011;7231;59.370;18.016;2023-08-21T07:17:32;6.30;;;4.10;;
14294;SDS011;7231;59.370;18.016;2023-08-21T07:19:59;5.65;;;3.58;;
14294;SDS011;7231;59.370;18.016;2023-08-21T07:22:29;6.60;;;3.78;;
14294;SDS011;7231;59.370;18.016;2023-08-21T07:24:57;5.80;;;3.50;;
14294;SDS011;7231;59.370;18.016;2023-08-21T07:27:26;6.03;;;3.50;;
14294;SDS011;7231;59.370;18.016;2023-08-21T07:29:54;9.07;;;3.30;;
14294;SDS011;7231;59.370;18.016;2023-08-21T07:32:22;7.30;;;3.17;;
14294;SDS011;7231;59.370;18.016;2023-08-21T07:34:51;8.23;;;3.55;;
14294;SDS011;7231;59.370;18.016;2023-08-21T07:37:21;6.95;;;3.58;;
14294;SDS011;7231;59.370;18.016;2023-08-21T07:39:50;6.03;;;3.33;;
14294;SDS011;7231;59.370;18.016;2023-08-21T07:42:18;4.85;;;3.10;;
14294;SDS011;7231;59.370;18.016;2023-08-21T07:44:46;7.85;;;3.35;;
14294;SDS011;7231;59.370;18.016;2023-08-21T07:47:14;6.82;;;3.45;;
14294;SDS011;7231;59.370;18.016;2023-08-21T07:49:42;6.10;;;3.33;;
14294;SDS011;7231;59.370;18.016;2023-08-21T07:52:10;5.03;;;3.08;;
14294;SDS011;7231;59.370;18.016;2023-08-21T07:54:38;8.38;;;3.85;;
14294;SDS011;7231;59.370;18.016;2023-08-21T07:57:08;5.75;;;3.15;;
14294;SDS011;7231;59.370;18.016;2023-08-21T07:59:35;4.82;;;2.53;;
14294;SDS011;7231;59.370;18.016;2023-08-21T08:02:03;8.23;;;3.10;;
14294;SDS011;7231;59.370;18.016;2023-08-21T08:04:31;4.75;;;2.50;;
14294;SDS011;7231;59.370;18.016;2023-08-21T08:06:59;6.68;;;3.03;;
14294;SDS011;7231;59.370;18.016;2023-08-21T08:09:27;4.63;;;2.80;;
14294;SDS011;7231;59.370;18.016;2023-08-21T08:11:55;5.43;;;2.63;;
14294;SDS011;7231;59.370;18.016;2023-08-21T08:14:25;6.22;;;2.85;;
14294;SDS011;7231;59.370;18.016;2023-08-21T08:16:53;5.28;;;2.70;;
14294;SDS011;7231;59.370;18.016;2023-08-21T08:19:21;4.70;;;2.92;;
14294;SDS011;7231;59.370;18.016;2023-08-21T08:21:49;5.00;;;3.00;;
14294;SDS011;7231;59.370;18.016;2023-08-21T08:24:17;7.47;;;3.35;;
14294;SDS011;7231;59.370;18.016;2023-08-21T08:26:45;5.15;;;2.75;;
14294;SDS011;7231;59.370;18.016;2023-08-21T08:29:13;7.20;;;3.22;;
14294;SDS011;7231;59.370;18.016;2023-08-21T08:31:42;3.88;;;2.47;;
14294;SDS011;7231;59.370;18.016;2023-08-21T08:34:10;6.28;;;2.50;;
14294;SDS011;7231;59.370;18.016;2023-08-21T08:36:38;4.65;;;2.60;;
14294;SDS011;7231;59.370;18.016;2023-08-21T08:39:08;5.60;;;2.80;;
14294;SDS011;7231;59.370;18.016;2023-08-21T08:41:37;7.57;;;3.03;;
14294;SDS011;7231;59.370;18.016;2023-08-21T08:44:11;6.28;;;2.50;;
14294;SDS011;7231;59.370;18.016;2023-08-21T08:46:43;6.43;;;2.60;;
14294;SDS011;7231;59.370;18.016;2023-08-21T08:49:11;5.18;;;2.72;;
14294;SDS011;7231;59.370;18.016;2023-08-21T08:51:40;5.65;;;2.90;;
14294;SDS011;7231;59.370;18.016;2023-08-21T08:54:10;5.88;;;3.03;;
14294;SDS011;7231;59.370;18.016;2023-08-21T08:56:40;5.05;;;2.60;;
14294;SDS011;7231;59.370;18.016;2023-08-21T08:59:08;5.53;;;2.63;;
14294;SDS011;7231;59.370;18.016;2023-08-21T09:01:36;6.38;;;2.55;;
14294;SDS011;7231;59.370;18.016;2023-08-21T09:04:05;5.22;;;2.72;;
14294;SDS011;7231;59.370;18.016;2023-08-21T09:06:33;4.43;;;2.83;;
14294;SDS011;7231;59.370;18.016;2023-08-21T09:09:02;5.90;;;3.00;;
14294;SDS011;7231;59.370;18.016;2023-08-21T09:11:31;5.95;;;3.10;;
14294;SDS011;7231;59.370;18.016;2023-08-21T09:14:00;3.00;;;2.15;;
14294;SDS011;7231;59.370;18.016;2023-08-21T09:16:28;4.43;;;2.50;;
14294;SDS011;7231;59.370;18.016;2023-08-21T09:18:56;8.07;;;3.00;;
14294;SDS011;7231;59.370;18.016;2023-08-21T09:21:26;5.07;;;2.15;;
14294;SDS011;7231;59.370;18.016;2023-08-21T09:23:56;4.88;;;2.15;;
14294;SDS011;7231;59.370;18.016;2023-08-21T09:26:25;4.07;;;2.17;;
14294;SDS011;7231;59.370;18.016;2023-08-21T09:28:54;5.35;;;2.65;;
14294;SDS011;7231;59.370;18.016;2023-08-21T09:31:22;6.18;;;2.05;;
14294;SDS011;7231;59.370;18.016;2023-08-21T09:33:57;4.03;;;2.10;;
14294;SDS011;7231;59.370;18.016;2023-08-21T09:36:28;5.53;;;2.33;;
14294;SDS011;7231;59.370;18.016;2023-08-21T09:38:56;6.32;;;2.30;;
14294;SDS011;7231;59.370;18.016;2023-08-21T09:41:24;3.35;;;2.05;;
14294;SDS011;7231;59.370;18.016;2023-08-21T09:43:53;5.32;;;1.92;;
14294;SDS011;7231;59.370;18.016;2023-08-21T09:46:26;5.20;;;2.25;;
14294;SDS011;7231;59.370;18.016;2023-08-21T09:48:55;6.20;;;2.65;;
14294;SDS011;7231;59.370;18.016;2023-08-21T09:51:23;3.78;;;2.10;;
14294;SDS011;7231;59.370;18.016;2023-08-21T09:53:54;7.40;;;2.42;;
14294;SDS011;7231;59.370;18.016;2023-08-21T09:56:24;3.88;;;2.15;;
14294;SDS011;7231;59.370;18.016;2023-08-21T09:58:53;4.43;;;2.08;;
14294;SDS011;7231;59.370;18.016;2023-08-21T10:01:21;5.20;;;2.13;;
14294;SDS011;7231;59.370;18.016;2023-08-21T10:03:49;3.78;;;2.40;;
14294;SDS011;7231;59.370;18.016;2023-08-21T10:06:21;5.45;;;2.40;;
14294;SDS011;7231;59.370;18.016;2023-08-21T10:08:53;5.93;;;2.17;;
14294;SDS011;7231;59.370;18.016;2023-08-21T10:11:24;4.70;;;2.25;;
14294;SDS011;7231;59.370;18.016;2023-08-21T10:13:52;3.33;;;1.65;;
14294;SDS011;7231;59.370;18.016;2023-08-21T10:16:20;4.18;;;1.75;;
14294;SDS011;7231;59.370;18.016;2023-08-21T10:18:49;3.30;;;1.83;;
14294;SDS011;7231;59.370;18.016;2023-08-21T10:21:17;3.17;;;1.75;;
14294;SDS011;7231;59.370;18.016;2023-08-21T10:23:46;3.30;;;1.50;;
14294;SDS011;7231;59.370;18.016;2023-08-21T10:26:20;2.70;;;1.45;;
14294;SDS011;7231;59.370;18.016;2023-08-21T10:28:50;4.55;;;2.00;;
14294;SDS011;7231;59.370;18.016;2023-08-21T10:31:25;6.90;;;2.25;;
14294;SDS011;7231;59.370;18.016;2023-08-21T10:33:58;3.50;;;1.48;;
14294;SDS011;7231;59.370;18.016;2023-08-21T10:36:40;5.32;;;1.90;;
14294;SDS011;7231;59.370;18.016;2023-08-21T10:39:23;5.10;;;1.77;;
14294;SDS011;7231;59.370;18.016;2023-08-21T10:41:56;6.65;;;1.92;;
14294;SDS011;7231;59.370;18.016;2023-08-21T10:44:34;2.50;;;1.60;;
14294;SDS011;7231;59.370;18.016;2023-08-21T10:47:15;4.70;;;1.77;;
14294;SDS011;7231;59.370;18.016;2023-08-21T10:49:45;4.28;;;1.50;;
14294;SDS011;7231;59.370;18.016;2023-08-21T10:52:14;3.20;;;1.80;;
14294;SDS011;7231;59.370;18.016;2023-08-21T10:54:47;5.80;;;1.88;;
14294;SDS011;7231;59.370;18.016;2023-08-21T10:57:18;4.90;;;1.75;;
14294;SDS011;7231;59.370;18.016;2023-08-21T10:59:50;3.28;;;1.67;;
14294;SDS011;7231;59.370;18.016;2023-08-21T11:02:19;4.95;;;1.90;;
14294;SDS011;7231;59.370;18.016;2023-08-21T11:04:47;3.72;;;1.90;;
14294;SDS011;7231;59.370;18.016;2023-08-21T11:07:16;2.72;;;1.70;;
14294;SDS011;7231;59.370;18.016;2023-08-21T11:09:44;4.05;;;1.70;;
14294;SDS011;7231;59.370;18.016;2023-08-21T11:12:13;3.30;;;1.80;;
14294;SDS011;7231;59.370;18.016;2023-08-21T11:14:45;3.45;;;1.90;;
14294;SDS011;7231;59.370;18.016;2023-08-21T11:17:13;2.88;;;1.70;;
14294;SDS011;7231;59.370;18.016;2023-08-21T11:19:41;6.15;;;1.52;;
14294;SDS011;7231;59.370;18.016;2023-08-21T11:22:10;4.70;;;1.90;;
14294;SDS011;7231;59.370;18.016;2023-08-21T11:24:43;4.28;;;1.70;;
14294;SDS011;7231;59.370;18.016;2023-08-21T11:27:13;3.55;;;1.48;;
14294;SDS011;7231;59.370;18.016;2023-08-21T11:29:43;4.60;;;1.83;;
14294;SDS011;7231;59.370;18.016;2023-08-21T11:32:14;3.13;;;1.58;;
14294;SDS011;7231;59.370;18.016;2023-08-21T11:34:47;4.03;;;1.70;;
14294;SDS011;7231;59.370;18.016;2023-08-21T11:37:16;2.15;;;1.65;;
14294;SDS011;7231;59.370;18.016;2023-08-21T11:39:47;2.55;;;1.40;;
14294;SDS011;7231;59.370;18.016;2023-08-21T11:42:16;2.78;;;1.33;;
14294;SDS011;7231;59.370;18.016;2023-08-21T11:44:46;4.38;;;1.60;;
14294;SDS011;7231;59.370;18.016;2023-08-21T11:47:17;4.32;;;1.80;;
14294;SDS011;7231;59.370;18.016;2023-08-21T11:49:47;4.78;;;2.05;;
14294;SDS011;7231;59.370;18.016;2023-08-21T11:52:17;3.85;;;1.98;;
14294;SDS011;7231;59.370;18.016;2023-08-21T11:54:47;6.38;;;1.85;;
14294;SDS011;7231;59.370;18.016;2023-08-21T11:57:16;5.80;;;1.80;;
14294;SDS011;7231;59.370;18.016;2023-08-21T11:59:50;2.88;;;1.38;;
14294;SDS011;7231;59.370;18.016;2023-08-21T12:02:21;4.45;;;1.58;;
14294;SDS011;7231;59.370;18.016;2023-08-21T12:04:54;2.95;;;1.70;;
14294;SDS011;7231;59.370;18.016;2023-08-21T12:07:28;2.28;;;1.30;;
14294;SDS011;7231;59.370;18.016;2023-08-21T12:09:56;4.50;;;1.60;;
14294;SDS011;7231;59.370;18.016;2023-08-21T12:12:24;3.33;;;1.40;;
14294;SDS011;7231;59.370;18.016;2023-08-21T12:14:54;4.75;;;1.50;;
14294;SDS011;7231;59.370;18.016;2023-08-21T12:17:22;2.53;;;1.40;;
14294;SDS011;7231;59.370;18.016;2023-08-21T12:19:50;4.03;;;1.35;;
14294;SDS011;7231;59.370;18.016;2023-08-21T12:22:18;2.42;;;1.40;;
14294;SDS011;7231;59.370;18.016;2023-08-21T12:24:46;3.35;;;1.10;;
14294;SDS011;7231;59.370;18.016;2023-08-21T12:27:14;3.78;;;1.15;;
14294;SDS011;7231;59.370;18.016;2023-08-21T12:29:42;2.90;;;1.30;;
14294;SDS011;7231;59.370;18.016;2023-08-21T12:32:15;2.80;;;1.27;;
14294;SDS011;7231;59.370;18.016;2023-08-21T12:34:43;4.22;;;1.60;;
14294;SDS011;7231;59.370;18.016;2023-08-21T12:37:11;5.32;;;1.58;;
14294;SDS011;7231;59.370;18.016;2023-08-21T12:39:43;2.85;;;1.40;;
14294;SDS011;7231;59.370;18.016;2023-08-21T12:42:11;2.33;;;1.20;;
14294;SDS011;7231;59.370;18.016;2023-08-21T12:44:39;3.55;;;1.30;;
14294;SDS011;7231;59.370;18.016;2023-08-21T12:47:07;5.72;;;1.40;;
14294;SDS011;7231;59.370;18.016;2023-08-21T12:49:37;2.38;;;1.10;;
14294;SDS011;7231;59.370;18.016;2023-08-21T12:52:05;3.85;;;1.58;;
14294;SDS011;7231;59.370;18.016;2023-08-21T12:54:36;4.38;;;1.40;;
14294;SDS011;7231;59.370;18.016;2023-08-21T12:57:04;4.47;;;1.77;;
14294;SDS011;7231;59.370;18.016;2023-08-21T12:59:33;4.30;;;1.27;;
14294;SDS011;7231;59.370;18.016;2023-08-21T13:02:02;4.20;;;1.50;;
14294;SDS011;7231;59.370;18.016;2023-08-21T13:04:32;6.03;;;1.88;;
14294;SDS011;7231;59.370;18.016;2023-08-21T13:07:01;4.03;;;1.20;;
14294;SDS011;7231;59.370;18.016;2023-08-21T13:09:30;5.13;;;1.35;;
14294;SDS011;7231;59.370;18.016;2023-08-21T13:11:59;2.28;;;1.33;;
14294;SDS011;7231;59.370;18.016;2023-08-21T13:14:27;3.58;;;1.30;;
14294;SDS011;7231;59.370;18.016;2023-08-21T13:16:58;3.85;;;1.38;;
14294;SDS011;7231;59.370;18.016;2023-08-21T13:19:26;3.35;;;1.48;;
14294;SDS011;7231;59.370;18.016;2023-08-21T13:21:54;3.67;;;1.33;;
14294;SDS011;7231;59.370;18.016;2023-08-21T13:24:23;5.40;;;1.58;;
14294;SDS011;7231;59.370;18.016;2023-08-21T13:26:52;2.70;;;1.42;;
14294;SDS011;7231;59.370;18.016;2023-08-21T13:29:20;2.65;;;1.27;;
14294;SDS011;7231;59.370;18.016;2023-08-21T13:31:48;2.50;;;1.20;;
14294;SDS011;7231;59.370;18.016;2023-08-21T13:34:16;2.33;;;1.20;;
14294;SDS011;7231;59.370;18.016;2023-08-21T13:36:44;3.42;;;1.30;;
14294;SDS011;7231;59.370;18.016;2023-08-21T13:39:12;3.78;;;1.35;;
14294;SDS011;7231;59.370;18.016;2023-08-21T13:41:43;5.07;;;1.48;;
14294;SDS011;7231;59.370;18.016;2023-08-21T13:44:11;3.47;;;1.27;;
14294;SDS011;7231;59.370;18.016;2023-08-21T13:46:39;2.75;;;1.20;;
14294;SDS011;7231;59.370;18.016;2023-08-21T13:49:07;2.75;;;1.20;;
14294;SDS011;7231;59.370;18.016;2023-08-21T13:51:35;2.67;;;1.20;;
14294;SDS011;7231;59.370;18.016;2023-08-21T13:54:03;5.25;;;1.40;;
14294;SDS011;7231;59.370;18.016;2023-08-21T13:56:32;1.77;;;1.10;;
14294;SDS011;7231;59.370;18.016;2023-08-21T13:59:01;3.50;;;1.48;;
14294;SDS011;7231;59.370;18.016;2023-08-21T14:01:29;2.88;;;1.10;;
14294;SDS011;7231;59.370;18.016;2023-08-21T14:03:57;3.05;;;1.13;;
14294;SDS011;7231;59.370;18.016;2023-08-21T14:06:25;2.78;;;1.33;;
14294;SDS011;7231;59.370;18.016;2023-08-21T14:08:53;5.55;;;1.40;;
14294;SDS011;7231;59.370;18.016;2023-08-21T14:11:21;3.22;;;1.10;;
14294;SDS011;7231;59.370;18.016;2023-08-21T14:13:49;3.90;;;1.30;;
14294;SDS011;7231;59.370;18.016;2023-08-21T14:16:19;2.67;;;1.27;;
14294;SDS011;7231;59.370;18.016;2023-08-21T14:18:47;3.75;;;1.13;;
14294;SDS011;7231;59.370;18.016;2023-08-21T14:21:15;2.35;;;1.20;;
14294;SDS011;7231;59.370;18.016;2023-08-21T14:23:43;1.85;;;0.98;;
14294;SDS011;7231;59.370;18.016;2023-08-21T14:26:11;2.22;;;1.10;;
14294;SDS011;7231;59.370;18.016;2023-08-21T14:28:39;2.17;;;1.17;;
14294;SDS011;7231;59.370;18.016;2023-08-21T14:31:07;3.72;;;1.10;;
14294;SDS011;7231;59.370;18.016;2023-08-21T14:33:36;3.42;;;1.20;;
14294;SDS011;7231;59.370;18.016;2023-08-21T14:36:04;3.33;;;1.20;;
14294;SDS011;7231;59.370;18.016;2023-08-21T14:38:32;3.70;;;1.30;;
14294;SDS011;7231;59.370;18.016;2023-08-21T14:41:00;3.35;;;1.20;;
14294;SDS011;7231;59.370;18.016;2023-08-21T14:43:29;5.68;;;1.90;;
14294;SDS011;7231;59.370;18.016;2023-08-21T14:45:58;5.85;;;1.48;;
14294;SDS011;7231;59.370;18.016;2023-08-21T14:48:26;3.22;;;1.27;;
14294;SDS011;7231;59.370;18.016;2023-08-21T14:50:56;3.88;;;1.05;;